Time;durP1;ratioP1;P1;durP2;ratioP2;P2;SDS_P1;SDS_P2;PMS_P1;PMS_P2;Temp;Humidity;BMP_temperature;BMP_pressure;BME280_temperature;BME280_humidity;BME280_pressure;Samples;Min_cycle;Max_cycle;Signal;HPM_P1;HPM_P2
2023/05/17 00:02:19;;;;;;;13.60;2.67;;;;;10.90;99096.00;;;;5054265;28;20410;-65
2023/05/17 00:04:46;;;;;;;4.72;2.40;;;;;10.90;99102.00;;;;5053412;28;20131;-65
2023/05/17 00:07:13;;;;;;;5.93;2.13;;;;;10.90;99097.00;;;;5054746;28;20109;-65
2023/05/17 00:09:39;;;;;;;4.80;2.28;;;;;11.00;99103.00;;;;5061024;28;20041;-65
2023/05/17 00:12:06;;;;;;;5.57;2.92;;;;;11.00;99103.00;;;;5059184;28;20124;-65
2023/05/17 00:14:33;;;;;;;6.18;2.10;;;;;11.10;99102.00;;;;5059291;28;20044;-65
2023/05/17 00:16:59;;;;;;;5.35;2.28;;;;;11.00;99099.00;;;;5056654;28;20094;-65
2023/05/17 00:19:26;;;;;;;3.55;2.05;;;;;11.00;99086.00;;;;5057120;28;20037;-65
2023/05/17 00:21:53;;;;;;;4.47;2.10;;;;;11.00;99093.00;;;;5055233;28;20490;-65
2023/05/17 00:24:19;;;;;;;8.02;2.00;;;;;11.00;99100.00;;;;5056746;28;20044;-65
2023/05/17 00:26:46;;;;;;;5.60;2.42;;;;;10.90;99100.00;;;;5055438;28;20087;-66
2023/05/17 00:29:13;;;;;;;5.60;2.85;;;;;10.90;99102.00;;;;5054817;28;20453;-65
2023/05/17 00:31:41;;;;;;;5.18;2.45;;;;;10.90;99107.00;;;;5053953;28;20055;-65
2023/05/17 00:34:07;;;;;;;5.03;2.17;;;;;10.90;99106.00;;;;5037240;28;20069;-64
2023/05/17 00:36:34;;;;;;;6.65;2.85;;;;;10.90;99109.00;;;;5053646;28;20044;-65
2023/05/17 00:39:01;;;;;;;4.95;2.35;;;;;10.90;99113.00;;;;5054294;28;20049;-65
2023/05/17 00:41:27;;;;;;;9.70;2.50;;;;;11.00;99099.00;;;;5053019;28;20045;-65
2023/05/17 00:43:54;;;;;;;6.43;2.50;;;;;11.00;99106.00;;;;5051245;28;20140;-65
2023/05/17 00:46:21;;;;;;;4.93;2.30;;;;;11.10;99114.00;;;;5035135;28;20045;-65
2023/05/17 00:48:47;;;;;;;5.20;2.40;;;;;11.10;99107.00;;;;5052253;28;20120;-65
2023/05/17 00:51:17;;;;;;;4.82;2.28;;;;;11.00;99099.00;;;;5053872;28;20060;-65
2023/05/17 00:53:44;;;;;;;6.85;2.35;;;;;11.00;99105.00;;;;5052354;28;20045;-65
2023/05/17 00:56:12;;;;;;;7.07;2.35;;;;;11.00;99102.00;;;;5035369;28;20063;-65
2023/05/17 00:58:39;;;;;;;5.15;2.75;;;;;11.00;99101.00;;;;5052248;28;20057;-65
2023/05/17 01:01:06;;;;;;;4.88;2.25;;;;;11.00;99103.00;;;;5052132;28;20045;-65
2023/05/17 01:03:33;;;;;;;4.22;1.90;;;;;10.90;99106.00;;;;5051942;28;20045;-65
2023/05/17 01:06:00;;;;;;;10.27;3.10;;;;;10.90;99107.00;;;;5033995;28;20055;-65
2023/05/17 01:08:26;;;;;;;6.13;2.30;;;;;10.90;99104.00;;;;5051781;28;20087;-65
2023/05/17 01:11:03;;;;;;;4.07;2.15;;;;;10.80;99107.00;;;;5052702;28;20147;-64
2023/05/17 01:13:37;;;;;;;8.23;2.92;;;;;10.70;99109.00;;;;5054321;28;20091;-65
2023/05/17 01:16:32;;;;;;;4.50;2.05;;;;;10.70;99106.00;;;;5055903;28;20076;-64
2023/05/17 01:19:15;;;;;;;7.13;2.55;;;;;10.60;99117.00;;;;5037864;28;20072;-64
2023/05/17 01:22:13;;;;;;;8.35;2.58;;;;;10.60;99111.00;;;;5055329;28;20044;-64
2023/05/17 01:24:58;;;;;;;7.35;3.55;;;;;10.60;99116.00;;;;5054092;28;20120;-64
2023/05/17 01:27:26;;;;;;;7.63;4.07;;;;;10.60;99112.00;;;;5056050;28;20044;-64
2023/05/17 01:29:55;;;;;;;7.82;3.40;;;;;10.60;99111.00;;;;5056029;28;20053;-65
2023/05/17 01:32:23;;;;;;;6.53;2.80;;;;;10.50;99108.00;;;;5056004;28;20049;-63
2023/05/17 01:34:50;;;;;;;8.27;3.30;;;;;10.50;99111.00;;;;5056654;28;20107;-65
2023/05/17 01:37:17;;;;;;;5.32;2.53;;;;;10.50;99113.00;;;;5054159;28;20546;-65
2023/05/17 01:39:44;;;;;;;5.38;2.60;;;;;10.40;99115.00;;;;5053943;28;20052;-65
2023/05/17 01:42:32;;;;;;;11.38;3.13;;;;;10.40;99105.00;;;;5053838;28;20147;-65
2023/05/17 01:45:03;;;;;;;6.18;2.92;;;;;10.40;99110.00;;;;5037163;28;20143;-65
2023/05/17 01:47:49;;;;;;;4.97;3.05;;;;;10.30;99109.00;;;;5053894;28;20069;-65
2023/05/17 01:50:18;;;;;;;4.47;2.47;;;;;10.30;99118.00;;;;5055140;28;20513;-65
2023/05/17 01:52:54;;;;;;;5.50;2.55;;;;;10.20;99113.00;;;;5053934;28;20048;-65
2023/05/17 01:55:40;;;;;;;6.10;3.20;;;;;10.30;99121.00;;;;5037852;28;20131;-66
2023/05/17 01:58:09;;;;;;;7.20;3.40;;;;;10.20;99116.00;;;;5054131;28;20075;-64
2023/05/17 02:00:38;;;;;;;7.25;3.03;;;;;10.20;99121.00;;;;5054980;28;20083;-64
2023/05/17 02:03:05;;;;;;;5.93;2.60;;;;;10.20;99118.00;;;;5055130;28;20436;-64
2023/05/17 02:05:32;;;;;;;4.50;2.60;;;;;10.20;99112.00;;;;5054126;28;20032;-65
2023/05/17 02:07:58;;;;;;;4.93;2.80;;;;;10.10;99110.00;;;;5055208;28;20551;-65
2023/05/17 02:10:25;;;;;;;4.63;2.92;;;;;10.10;99116.00;;;;5057119;28;20048;-65
2023/05/17 02:12:52;;;;;;;7.13;3.42;;;;;10.10;99116.00;;;;5057052;28;20045;-65
2023/05/17 02:15:19;;;;;;;5.97;2.42;;;;;10.10;99123.00;;;;5056374;28;20053;-65
2023/05/17 02:17:45;;;;;;;9.75;3.13;;;;;10.10;99129.00;;;;5037978;28;20045;-64
2023/05/17 02:20:13;;;;;;;4.95;2.38;;;;;10.10;99129.00;;;;5043541;28;20063;-65
2023/05/17 02:22:40;;;;;;;5.32;3.05;;;;;10.00;99122.00;;;;5056700;28;20041;-65
2023/05/17 02:25:07;;;;;;;3.60;3.00;;;;;10.00;99129.00;;;;5056881;28;20458;-65
2023/05/17 02:27:34;;;;;;;4.45;2.65;;;;;10.00;99127.00;;;;5056519;28;20064;-65
2023/05/17 02:30:03;;;;;;;5.80;2.88;;;;;9.90;99119.00;;;;5054034;28;20052;-65
2023/05/17 02:32:30;;;;;;;9.05;2.97;;;;;9.90;99124.00;;;;5037502;28;20049;-66
2023/05/17 02:34:58;;;;;;;4.55;2.75;;;;;9.80;99135.00;;;;5053788;28;20145;-65
2023/05/17 02:37:25;;;;;;;4.93;2.75;;;;;9.60;99130.00;;;;5054260;28;20159;-64
2023/05/17 02:39:51;;;;;;;6.20;2.80;;;;;9.50;99128.00;;;;5053859;28;20053;-64
2023/05/17 02:42:18;;;;;;;5.60;3.00;;;;;9.50;99134.00;;;;5039601;28;20405;-64
2023/05/17 02:44:47;;;;;;;6.82;2.95;;;;;9.50;99139.00;;;;5062070;28;20036;-63
2023/05/17 02:47:13;;;;;;;7.05;2.78;;;;;9.60;99139.00;;;;5077944;28;20043;-63
2023/05/17 02:49:40;;;;;;;5.00;2.38;;;;;9.50;99132.00;;;;5076854;28;20055;-63
2023/05/17 02:52:07;;;;;;;5.38;2.65;;;;;9.40;99139.00;;;;5074725;28;20035;-64
2023/05/17 02:54:33;;;;;;;4.30;2.60;;;;;9.40;99145.00;;;;5074910;28;20057;-63
2023/05/17 02:57:00;;;;;;;8.00;2.90;;;;;9.40;99148.00;;;;5074007;28;20080;-63
2023/05/17 02:59:27;;;;;;;6.53;3.30;;;;;9.30;99147.00;;;;5073702;28;20029;-64
2023/05/17 03:01:54;;;;;;;4.65;2.55;;;;;9.30;99151.00;;;;5073649;28;20041;-64
2023/05/17 03:04:20;;;;;;;7.03;3.00;;;;;9.30;99147.00;;;;5075298;28;20044;-64
2023/05/17 03:06:49;;;;;;;8.30;3.05;;;;;9.20;99154.00;;;;5074378;28;20049;-65
2023/05/17 03:09:16;;;;;;;6.28;3.00;;;;;9.10;99154.00;;;;5057191;28;20045;-65
2023/05/17 03:11:46;;;;;;;6.15;3.13;;;;;9.10;99148.00;;;;5054233;28;20044;-64
2023/05/17 03:14:18;;;;;;;8.50;3.20;;;;;9.10;99154.00;;;;5053857;28;20642;-65
2023/05/17 03:16:45;;;;;;;6.88;3.53;;;;;9.10;99155.00;;;;5053280;28;20045;-64
2023/05/17 03:19:12;;;;;;;9.02;3.78;;;;;9.10;99161.00;;;;5052729;28;20037;-64
2023/05/17 03:21:41;;;;;;;4.75;2.83;;;;;8.80;99159.00;;;;5036394;28;20075;-64
2023/05/17 03:24:08;;;;;;;7.70;3.45;;;;;8.80;99155.00;;;;5052936;28;20047;-64
2023/05/17 03:26:36;;;;;;;6.13;3.47;;;;;8.90;99150.00;;;;5056020;28;20502;-63
2023/05/17 03:29:04;;;;;;;5.93;3.72;;;;;9.00;99165.00;;;;5062631;28;20041;-64
2023/05/17 03:31:31;;;;;;;8.18;3.30;;;;;8.90;99160.00;;;;5060029;28;20044;-64
2023/05/17 03:33:58;;;;;;;8.00;3.88;;;;;8.90;99164.00;;;;5053813;28;20135;-64
2023/05/17 03:36:25;;;;;;;5.32;3.20;;;;;8.90;99165.00;;;;5052912;28;20140;-64
2023/05/17 03:38:51;;;;;;;8.88;3.08;;;;;8.80;99158.00;;;;5035576;28;20044;-64
2023/05/17 03:41:18;;;;;;;7.05;3.22;;;;;8.80;99153.00;;;;5052247;28;20111;-64
2023/05/17 03:43:45;;;;;;;5.35;3.92;;;;;8.70;99163.00;;;;5035890;28;20102;-65
2023/05/17 03:46:14;;;;;;;7.55;3.22;;;;;8.70;99159.00;;;;5052772;28;20053;-66
2023/05/17 03:48:40;;;;;;;6.95;3.17;;;;;8.60;99154.00;;;;5052742;28;20076;-66
2023/05/17 03:51:08;;;;;;;10.23;3.35;;;;;8.60;99147.00;;;;5036027;28;20573;-66
2023/05/17 03:53:39;;;;;;;6.55;3.30;;;;;8.60;99162.00;;;;5052761;28;20484;-66
2023/05/17 03:56:06;;;;;;;7.40;3.17;;;;;8.50;99159.00;;;;5053257;28;20490;-66
2023/05/17 03:58:33;;;;;;;7.40;3.45;;;;;8.50;99157.00;;;;5056241;28;20084;-65
2023/05/17 04:01:00;;;;;;;4.97;2.90;;;;;8.50;99161.00;;;;5054623;28;20131;-66
2023/05/17 04:03:26;;;;;;;5.32;2.67;;;;;8.50;99163.00;;;;5054444;28;20096;-65
2023/05/17 04:06:00;;;;;;;5.75;3.00;;;;;8.50;99161.00;;;;5054320;28;20083;-66
2023/05/17 04:08:27;;;;;;;;;;;;;8.50;99168.00;;;;5054368;28;20126;-66
2023/05/17 04:10:54;;;;;;;5.70;3.00;;;;;8.50;99173.00;;;;5066140;28;19944;-65
2023/05/17 04:13:21;;;;;;;7.95;3.33;;;;;8.60;99170.00;;;;5064084;28;20048;-64
2023/05/17 04:15:47;;;;;;;7.57;3.20;;;;;8.70;99175.00;;;;5062784;28;20065;-64
2023/05/17 04:18:14;;;;;;;6.82;3.25;;;;;8.80;99176.00;;;;5062385;28;20045;-64
2023/05/17 04:20:41;;;;;;;5.30;3.47;;;;;8.80;99177.00;;;;5058054;28;20417;-63
2023/05/17 04:23:08;;;;;;;6.60;2.90;;;;;8.90;99179.00;;;;5058178;28;20045;-64
2023/05/17 04:25:35;;;;;;;5.82;3.03;;;;;8.90;99191.00;;;;5056544;28;20122;-64
2023/05/17 04:28:02;;;;;;;9.10;3.35;;;;;8.90;99188.00;;;;5054030;28;20033;-64
2023/05/17 04:30:29;;;;;;;7.30;3.58;;;;;8.90;99191.00;;;;5052509;28;20049;-65
2023/05/17 04:32:56;;;;;;;5.93;3.00;;;;;8.80;99195.00;;;;5054362;28;20048;-66
2023/05/17 04:35:22;;;;;;;6.85;3.60;;;;;8.90;99190.00;;;;5052325;28;20045;-65
2023/05/17 04:37:52;;;;;;;8.40;5.30;;;;;9.00;99200.00;;;;5036808;28;20041;-66
2023/05/17 04:40:21;;;;;;;6.78;5.15;;;;;9.10;99196.00;;;;5036278;28;20122;-66
2023/05/17 04:42:49;;;;;;;9.00;4.40;;;;;9.30;99196.00;;;;5035756;28;20053;-66
2023/05/17 04:45:16;;;;;;;6.38;3.65;;;;;9.30;99199.00;;;;5055284;28;20106;-64
2023/05/17 04:47:43;;;;;;;7.20;3.80;;;;;9.40;99213.00;;;;5058566;28;20041;-64
2023/05/17 04:50:11;;;;;;;9.27;4.32;;;;;9.50;99210.00;;;;5057326;28;20053;-66
2023/05/17 04:52:38;;;;;;;7.13;3.40;;;;;9.50;99216.00;;;;5057539;28;20132;-66
2023/05/17 04:55:05;;;;;;;5.93;3.35;;;;;9.60;99218.00;;;;5058271;28;20075;-65
2023/05/17 04:57:31;;;;;;;6.70;3.28;;;;;9.70;99218.00;;;;5058333;28;20091;-65
2023/05/17 05:00:06;;;;;;;8.50;3.58;;;;;9.80;99228.00;;;;5058001;28;20041;-66
2023/05/17 05:02:34;;;;;;;10.60;3.72;;;;;9.90;99229.00;;;;5058732;28;20067;-66
2023/05/17 05:05:03;;;;;;;7.22;3.53;;;;;10.00;99232.00;;;;5058417;28;20415;-66
2023/05/17 05:07:31;;;;;;;8.10;3.80;;;;;10.00;99230.00;;;;5058178;28;20532;-65
2023/05/17 05:09:57;;;;;;;8.40;3.33;;;;;10.00;99229.00;;;;5057146;28;20051;-65
2023/05/17 05:12:24;;;;;;;6.63;3.83;;;;;10.10;99229.00;;;;5040752;28;20045;-65
2023/05/17 05:14:51;;;;;;;7.28;3.50;;;;;10.10;99235.00;;;;5057475;28;20049;-66
2023/05/17 05:17:18;;;;;;;8.05;3.67;;;;;10.10;99239.00;;;;5057448;28;20445;-68
2023/05/17 05:19:45;;;;;;;7.70;3.05;;;;;10.20;99250.00;;;;5057101;28;20071;-65
2023/05/17 05:22:12;;;;;;;5.28;4.00;;;;;10.20;99248.00;;;;5040697;28;20068;-64
2023/05/17 05:24:39;;;;;;;8.40;4.00;;;;;10.30;99254.00;;;;5057511;28;20048;-66
2023/05/17 05:27:06;;;;;;;5.80;3.30;;;;;10.30;99252.00;;;;5058395;28;20049;-66
2023/05/17 05:29:34;;;;;;;10.73;3.95;;;;;10.40;99263.00;;;;5041784;28;20099;-65
2023/05/17 05:32:01;;;;;;;8.98;3.97;;;;;10.50;99267.00;;;;5057563;28;20048;-65
2023/05/17 05:34:30;;;;;;;8.30;3.50;;;;;10.50;99268.00;;;;5057445;28;20102;-65
2023/05/17 05:36:58;;;;;;;7.20;3.40;;;;;10.50;99259.00;;;;5042063;28;20505;-66
2023/05/17 05:39:26;;;;;;;10.32;3.65;;;;;10.60;99256.00;;;;5059254;28;20049;-65
2023/05/17 05:41:53;;;;;;;7.00;3.65;;;;;10.60;99259.00;;;;5058840;28;20057;-66
2023/05/17 05:44:20;;;;;;;5.95;3.33;;;;;10.70;99263.00;;;;5057827;28;20045;-65
2023/05/17 05:46:50;;;;;;;8.10;3.60;;;;;10.70;99270.00;;;;5057891;28;20378;-64
2023/05/17 05:49:18;;;;;;;5.70;3.05;;;;;10.80;99275.00;;;;5057374;28;20473;-65
2023/05/17 05:51:44;;;;;;;6.78;3.15;;;;;10.90;99271.00;;;;5041091;28;20052;-65
2023/05/17 05:54:12;;;;;;;7.00;3.67;;;;;10.90;99273.00;;;;5058047;28;20417;-65
2023/05/17 05:56:39;;;;;;;7.78;4.75;;;;;11.00;99275.00;;;;5055819;28;20056;-66
2023/05/17 05:59:08;;;;;;;7.55;3.90;;;;;11.00;99266.00;;;;5054289;28;20041;-65
2023/05/17 06:01:35;;;;;;;6.03;3.80;;;;;11.10;99278.00;;;;5054000;28;20056;-64
2023/05/17 06:04:02;;;;;;;6.90;3.67;;;;;11.10;99280.00;;;;5053631;28;20144;-65
2023/05/17 06:06:28;;;;;;;8.57;3.88;;;;;11.10;99277.00;;;;5055048;28;20070;-65
2023/05/17 06:08:55;;;;;;;10.07;4.20;;;;;11.20;99285.00;;;;5053247;28;20061;-65
2023/05/17 06:11:25;;;;;;;8.10;3.95;;;;;11.30;99290.00;;;;5053961;28;20099;-64
2023/05/17 06:13:51;;;;;;;7.38;3.42;;;;;11.20;99284.00;;;;5036646;28;20048;-65
2023/05/17 06:16:18;;;;;;;6.57;3.55;;;;;11.20;99292.00;;;;5053417;28;20099;-65
2023/05/17 06:18:45;;;;;;;9.82;3.72;;;;;11.20;99300.00;;;;5054804;28;20041;-65
2023/05/17 06:21:17;;;;;;;9.52;3.65;;;;;11.40;99296.00;;;;5053451;28;20049;-65
2023/05/17 06:23:44;;;;;;;10.18;3.90;;;;;11.50;99304.00;;;;5036918;28;20052;-65
2023/05/17 06:26:11;;;;;;;10.85;3.97;;;;;11.60;99298.00;;;;5053255;28;20143;-65
2023/05/17 06:28:37;;;;;;;9.57;3.97;;;;;11.70;99296.00;;;;5053309;28;20051;-65
2023/05/17 06:31:04;;;;;;;6.72;3.65;;;;;11.70;99310.00;;;;5037073;28;20056;-66
2023/05/17 06:33:31;;;;;;;7.28;3.33;;;;;11.70;99318.00;;;;5053596;28;20132;-65
2023/05/17 06:35:58;;;;;;;7.57;3.97;;;;;11.90;99314.00;;;;5053205;28;20560;-65
2023/05/17 06:38:26;;;;;;;12.23;3.78;;;;;11.80;99318.00;;;;5053448;28;20053;-66
2023/05/17 06:40:54;;;;;;;8.27;3.70;;;;;11.80;99320.00;;;;5052730;28;20051;-65
2023/05/17 06:43:21;;;;;;;8.65;3.85;;;;;11.80;99319.00;;;;5053006;28;20412;-65
2023/05/17 06:45:47;;;;;;;8.82;3.72;;;;;11.80;99328.00;;;;5053195;28;20075;-65
2023/05/17 06:48:14;;;;;;;10.77;4.20;;;;;11.90;99327.00;;;;5052934;28;20056;-65
2023/05/17 06:50:41;;;;;;;9.30;3.70;;;;;11.80;99333.00;;;;5052365;28;20041;-65
2023/05/17 06:53:08;;;;;;;10.77;4.55;;;;;11.80;99328.00;;;;5036372;28;20049;-65
2023/05/17 06:55:35;;;;;;;10.77;5.38;;;;;11.80;99332.00;;;;5052587;28;20044;-65
2023/05/17 06:58:01;;;;;;;13.75;4.25;;;;;11.90;99326.00;;;;5053924;28;20064;-66
2023/05/17 07:00:28;;;;;;;9.23;3.45;;;;;11.90;99320.00;;;;5053614;28;20044;-65
2023/05/17 07:02:55;;;;;;;8.20;3.75;;;;;12.20;99323.00;;;;5052771;28;20052;-65
2023/05/17 07:05:27;;;;;;;13.38;4.28;;;;;12.40;99332.00;;;;5036022;28;20079;-66
2023/05/17 07:07:54;;;;;;;10.02;4.38;;;;;12.40;99331.00;;;;5052737;28;20143;-65
2023/05/17 07:10:21;;;;;;;13.30;3.78;;;;;12.50;99331.00;;;;5052369;28;20040;-65
2023/05/17 07:12:48;;;;;;;6.63;3.55;;;;;12.60;99334.00;;;;5054294;28;20041;-65
2023/05/17 07:15:14;;;;;;;10.73;3.65;;;;;12.50;99333.00;;;;5054696;28;20482;-65
2023/05/17 07:17:41;;;;;;;6.57;3.40;;;;;12.70;99342.00;;;;5054988;28;20048;-65
2023/05/17 07:20:08;;;;;;;8.98;3.80;;;;;12.90;99335.00;;;;5054825;28;20037;-65
2023/05/17 07:22:36;;;;;;;9.63;3.83;;;;;12.90;99341.00;;;;5055029;28;20525;-64
2023/05/17 07:25:04;;;;;;;8.25;3.80;;;;;12.80;99337.00;;;;5050945;28;20057;-65
2023/05/17 07:27:30;;;;;;;8.45;3.85;;;;;13.00;99340.00;;;;5051373;28;20068;-65
2023/05/17 07:29:57;;;;;;;7.30;3.05;;;;;13.00;99352.00;;;;5055210;28;20045;-66
2023/05/17 07:32:24;;;;;;;8.27;3.25;;;;;13.10;99349.00;;;;5053475;28;20147;-66
2023/05/17 07:34:50;;;;;;;6.57;2.85;;;;;13.20;99335.00;;;;5051927;28;20516;-65
2023/05/17 07:37:17;;;;;;;8.68;4.10;;;;;13.30;99345.00;;;;5051709;28;20147;-65
2023/05/17 07:39:45;;;;;;;8.60;3.38;;;;;13.40;99336.00;;;;5035402;28;20049;-67
2023/05/17 07:42:12;;;;;;;7.43;3.33;;;;;13.40;99342.00;;;;5053356;28;20044;-66
2023/05/17 07:44:42;;;;;;;9.35;3.65;;;;;13.40;99337.00;;;;5036065;28;20426;-66
2023/05/17 07:47:08;;;;;;;9.10;3.65;;;;;13.40;99350.00;;;;5051901;28;20118;-66
2023/05/17 07:49:35;;;;;;;5.38;3.05;;;;;13.40;99338.00;;;;5052971;28;20049;-65
2023/05/17 07:52:02;;;;;;;10.98;3.75;;;;;13.30;99346.00;;;;5054066;28;20045;-66
2023/05/17 07:54:29;;;;;;;6.88;3.10;;;;;13.30;99352.00;;;;5051778;28;20049;-63
2023/05/17 07:56:56;;;;;;;9.88;3.28;;;;;13.30;99351.00;;;;5053310;28;20044;-65
2023/05/17 07:59:23;;;;;;;9.13;2.90;;;;;13.20;99344.00;;;;5051655;28;20041;-65
2023/05/17 08:01:50;;;;;;;9.15;3.13;;;;;13.20;99351.00;;;;5051907;28;20052;-66
2023/05/17 08:04:20;;;;;;;6.47;3.15;;;;;13.30;99353.00;;;;5051555;28;20071;-67
2023/05/17 08:06:47;;;;;;;5.97;3.17;;;;;13.30;99357.00;;;;5051644;28;20148;-66
2023/05/17 08:09:17;;;;;;;8.52;2.97;;;;;13.30;99353.00;;;;5051164;28;20045;-65
2023/05/17 08:11:46;;;;;;;6.15;3.13;;;;;13.30;99362.00;;;;5051367;28;20060;-65
2023/05/17 08:14:14;;;;;;;5.65;3.15;;;;;13.30;99363.00;;;;5051078;28;20045;-66
2023/05/17 08:16:41;;;;;;;7.10;2.83;;;;;13.30;99358.00;;;;5050983;28;20469;-66
2023/05/17 08:19:11;;;;;;;6.13;3.08;;;;;13.50;99361.00;;;;5050640;28;20151;-65
2023/05/17 08:21:39;;;;;;;5.68;3.17;;;;;13.80;99356.00;;;;5051001;28;20437;-65
2023/05/17 08:24:06;;;;;;;6.38;2.67;;;;;13.80;99349.00;;;;5051271;28;20091;-65
2023/05/17 08:26:33;;;;;;;11.55;3.35;;;;;13.90;99347.00;;;;5034550;28;20595;-66
2023/05/17 08:29:01;;;;;;;6.00;2.92;;;;;13.90;99347.00;;;;5052077;28;20086;-66
2023/05/17 08:31:28;;;;;;;8.27;3.20;;;;;14.00;99353.00;;;;5034650;28;20135;-66
2023/05/17 08:33:55;;;;;;;8.10;3.20;;;;;14.20;99352.00;;;;5051014;28;20053;-66
2023/05/17 08:36:22;;;;;;;5.53;2.95;;;;;14.20;99352.00;;;;5051524;28;20091;-66
2023/05/17 08:38:50;;;;;;;6.75;2.67;;;;;14.30;99350.00;;;;5034456;28;20053;-66
2023/05/17 08:41:17;;;;;;;8.85;2.97;;;;;14.30;99356.00;;;;5051217;28;20044;-66
2023/05/17 08:43:43;;;;;;;6.60;2.80;;;;;14.30;99349.00;;;;5052150;28;20127;-66
2023/05/17 08:46:11;;;;;;;5.43;2.70;;;;;14.30;99345.00;;;;5052446;28;20498;-66
2023/05/17 08:48:40;;;;;;;7.50;3.25;;;;;14.40;99351.00;;;;5052001;28;20040;-66
2023/05/17 08:51:11;;;;;;;5.60;2.75;;;;;14.40;99344.00;;;;5050232;28;20127;-66
2023/05/17 08:53:37;;;;;;;10.52;2.40;;;;;14.30;99339.00;;;;5034290;28;20055;-66
2023/05/17 08:56:05;;;;;;;4.90;2.40;;;;;14.30;99341.00;;;;5035214;28;20063;-66
2023/05/17 08:58:36;;;;;;;5.78;2.80;;;;;14.20;99344.00;;;;5035800;28;20053;-66
2023/05/17 09:01:22;;;;;;;8.57;3.50;;;;;14.10;99342.00;;;;5039089;28;20080;-66
2023/05/17 09:03:52;;;;;;;6.90;3.58;;;;;14.00;99342.00;;;;5052215;28;20550;-66
2023/05/17 09:06:20;;;;;;;8.40;2.90;;;;;13.90;99335.00;;;;5053782;28;20083;-66
2023/05/17 09:08:51;;;;;;;5.28;2.60;;;;;13.90;99330.00;;;;5052253;28;20457;-67
2023/05/17 09:11:26;;;;;;;5.30;2.42;;;;;14.00;99337.00;;;;5053920;28;20562;-66
2023/05/17 09:13:57;;;;;;;4.53;2.42;;;;;14.00;99332.00;;;;5053886;28;20041;-65
2023/05/17 09:16:25;;;;;;;4.63;2.35;;;;;14.10;99333.00;;;;5053598;28;20048;-65
2023/05/17 09:18:55;;;;;;;5.57;2.17;;;;;14.20;99338.00;;;;5034393;28;20053;-66
2023/05/17 09:21:24;;;;;;;3.85;2.55;;;;;14.30;99345.00;;;;5051520;28;20076;-67
2023/05/17 09:23:51;;;;;;;5.72;2.40;;;;;14.40;99336.00;;;;5050590;28;20044;-65
2023/05/17 09:26:42;;;;;;;7.38;2.47;;;;;14.60;99342.00;;;;5050841;28;20045;-65
2023/05/17 09:29:10;;;;;;;8.65;2.72;;;;;14.60;99346.00;;;;5051481;28;20053;-65
2023/05/17 09:31:38;;;;;;;5.10;2.38;;;;;14.70;99348.00;;;;5050760;28;20414;-65
2023/05/17 09:34:06;;;;;;;5.72;1.90;;;;;14.60;99352.00;;;;5054157;28;20052;-65
2023/05/17 09:36:41;;;;;;;7.13;2.70;;;;;14.80;99363.00;;;;5053932;28;20066;-65
2023/05/17 09:39:13;;;;;;;4.72;2.47;;;;;14.90;99366.00;;;;5054004;28;20045;-65
2023/05/17 09:41:41;;;;;;;6.18;2.80;;;;;14.80;99349.00;;;;5055256;28;20055;-66
2023/05/17 09:44:09;;;;;;;4.43;2.30;;;;;14.90;99361.00;;;;5055046;28;20494;-68
2023/05/17 09:46:46;;;;;;;7.00;2.83;;;;;15.00;99352.00;;;;5054073;28;20144;-66
2023/05/17 09:49:14;;;;;;;4.70;2.72;;;;;15.10;99350.00;;;;5053767;28;20092;-67
2023/05/17 09:51:47;;;;;;;6.35;2.45;;;;;15.20;99349.00;;;;5053803;28;20075;-67
2023/05/17 09:54:16;;;;;;;5.77;2.30;;;;;15.30;99349.00;;;;5054907;28;20417;-66
2023/05/17 09:56:43;;;;;;;5.43;2.38;;;;;15.20;99349.00;;;;5053792;28;20068;-67
2023/05/17 09:59:14;;;;;;;7.68;2.47;;;;;15.10;99352.00;;;;5036857;28;20051;-67
2023/05/17 10:01:43;;;;;;;6.80;2.92;;;;;14.90;99352.00;;;;5053904;28;20102;-67
2023/05/17 10:04:19;;;;;;;6.03;2.45;;;;;14.80;99356.00;;;;5053752;28;20484;-66
2023/05/17 10:06:48;;;;;;;5.00;2.50;;;;;14.60;99347.00;;;;5054983;28;20429;-66
2023/05/17 10:09:23;;;;;;;4.15;2.58;;;;;14.70;99350.00;;;;5053050;28;20057;-66
2023/05/17 10:11:51;;;;;;;9.15;2.80;;;;;14.70;99350.00;;;;5054691;28;20073;-67
2023/05/17 10:14:32;;;;;;;4.95;2.38;;;;;14.80;99346.00;;;;5054642;28;20045;-66
2023/05/17 10:17:01;;;;;;;5.53;2.22;;;;;14.80;99351.00;;;;5036747;28;20045;-66
2023/05/17 10:19:29;;;;;;;5.78;2.70;;;;;14.80;99341.00;;;;5053142;28;20079;-66
2023/05/17 10:21:57;;;;;;;4.93;2.40;;;;;14.90;99348.00;;;;5053321;28;20049;-66
2023/05/17 10:24:36;;;;;;;9.98;2.45;;;;;15.10;99342.00;;;;5053287;28;20055;-65
2023/05/17 10:27:06;;;;;;;5.38;2.38;;;;;15.20;99349.00;;;;5053387;28;20124;-66
2023/05/17 10:29:35;;;;;;;8.20;2.58;;;;;15.30;99343.00;;;;5052846;28;20052;-66
2023/05/17 10:32:06;;;;;;;5.50;2.63;;;;;15.40;99351.00;;;;5053019;28;20140;-65
2023/05/17 10:34:35;;;;;;;3.75;2.63;;;;;15.60;99332.00;;;;5053285;28;20048;-65
2023/05/17 10:37:03;;;;;;;6.07;2.83;;;;;15.70;99331.00;;;;5054261;28;20049;-65
2023/05/17 10:39:33;;;;;;;6.38;2.70;;;;;16.00;99333.00;;;;5053873;28;20123;-65
2023/05/17 10:42:02;;;;;;;5.15;2.38;;;;;16.10;99336.00;;;;5052740;28;20132;-65
2023/05/17 10:44:40;;;;;;;4.90;2.53;;;;;16.10;99346.00;;;;5052294;28;20067;-64
2023/05/17 10:47:07;;;;;;;7.68;2.65;;;;;15.90;99331.00;;;;5053115;28;20047;-64
2023/05/17 10:49:37;;;;;;;6.10;2.40;;;;;15.80;99331.00;;;;5053709;28;20051;-64
2023/05/17 10:52:19;;;;;;;6.50;2.80;;;;;15.80;99324.00;;;;5053921;28;20490;-64
2023/05/17 10:54:48;;;;;;;5.43;2.67;;;;;15.80;99327.00;;;;5052969;28;20044;-64
2023/05/17 10:57:32;;;;;;;5.75;2.63;;;;;16.40;99327.00;;;;5056818;28;20049;-64
2023/05/17 11:00:19;;;;;;;8.75;2.70;;;;;16.50;99326.00;;;;5058838;28;20045;-64
2023/05/17 11:02:47;;;;;;;5.07;2.35;;;;;16.70;99327.00;;;;5056748;28;20040;-64
2023/05/17 11:05:25;;;;;;;7.35;2.55;;;;;16.80;99334.00;;;;5054826;28;20049;-64
2023/05/17 11:08:12;;;;;;;6.50;2.60;;;;;16.90;99323.00;;;;5055358;28;20037;-64
2023/05/17 11:11:08;;;;;;;6.78;3.08;;;;;16.80;99317.00;;;;5055858;28;20059;-64
2023/05/17 11:13:53;;;;;;;4.20;2.65;;;;;17.00;99315.00;;;;5056495;28;20140;-64
2023/05/17 11:16:22;;;;;;;3.75;2.40;;;;;17.10;99339.00;;;;5055368;28;20045;-65
2023/05/17 11:18:51;;;;;;;8.20;3.10;;;;;17.00;99323.00;;;;5056308;28;20143;-65
2023/05/17 11:21:19;;;;;;;5.50;2.55;;;;;17.00;99326.00;;;;5059349;28;20465;-65
2023/05/17 11:23:47;;;;;;;3.92;2.63;;;;;17.10;99326.00;;;;5067875;28;20100;-65
2023/05/17 11:26:21;;;;;;;3.85;2.33;;;;;17.00;99322.00;;;;5053362;28;20056;-65
2023/05/17 11:28:59;;;;;;;4.65;2.55;;;;;16.90;99330.00;;;;5052648;28;20048;-65
2023/05/17 11:31:33;;;;;;;6.18;2.72;;;;;16.90;99333.00;;;;5052473;28;20045;-64
2023/05/17 11:34:03;;;;;;;5.80;3.03;;;;;16.70;99338.00;;;;5052246;28;20593;-64
2023/05/17 11:36:30;;;;;;;10.18;2.67;;;;;16.50;99326.00;;;;5036204;28;20102;-64
2023/05/17 11:39:19;;;;;;;5.70;2.67;;;;;16.50;99326.00;;;;5053393;28;20053;-65
2023/05/17 11:41:53;;;;;;;9.55;3.65;;;;;16.70;99327.00;;;;5053489;28;20041;-65
2023/05/17 11:44:31;;;;;;;7.28;3.45;;;;;16.90;99315.00;;;;5035464;28;20132;-66
2023/05/17 11:47:08;;;;;;;8.45;3.92;;;;;17.20;99315.00;;;;5052970;28;20106;-66
2023/05/17 11:49:37;;;;;;;7.90;2.95;;;;;17.20;99315.00;;;;5051512;28;20055;-65
2023/05/17 11:52:04;;;;;;;5.82;3.08;;;;;17.20;99320.00;;;;5051750;28;20098;-65
2023/05/17 11:54:32;;;;;;;6.00;3.03;;;;;17.20;99320.00;;;;5052313;28;20049;-65
2023/05/17 11:57:01;;;;;;;6.55;2.88;;;;;17.10;99313.00;;;;5052650;28;20099;-65
2023/05/17 11:59:27;;;;;;;5.82;3.90;;;;;17.00;99318.00;;;;5035317;28;20089;-65
2023/05/17 12:01:55;;;;;;;6.60;3.63;;;;;17.00;99309.00;;;;5051739;28;20509;-64
2023/05/17 12:04:24;;;;;;;5.70;3.35;;;;;17.00;99311.00;;;;5051624;28;20049;-65
2023/05/17 12:06:52;;;;;;;7.85;4.97;;;;;16.90;99310.00;;;;5052537;28;20040;-65
2023/05/17 12:09:20;;;;;;;6.78;3.67;;;;;17.00;99321.00;;;;5051355;28;20067;-65
2023/05/17 12:11:47;;;;;;;9.02;3.97;;;;;16.70;99316.00;;;;5051309;28;20449;-65
2023/05/17 12:14:19;;;;;;;6.88;3.33;;;;;17.00;99316.00;;;;5052298;28;20088;-65
2023/05/17 12:16:55;;;;;;;5.13;2.92;;;;;17.10;99299.00;;;;5054461;28;20397;-65
2023/05/17 12:19:24;;;;;;;8.00;3.83;;;;;17.40;99297.00;;;;5052226;28;20528;-66
2023/05/17 12:21:51;;;;;;;7.35;3.28;;;;;17.70;99306.00;;;;5051000;28;20044;-66
2023/05/17 12:24:18;;;;;;;8.52;3.80;;;;;17.80;99297.00;;;;5050909;28;20490;-66
2023/05/17 12:26:46;;;;;;;6.40;3.33;;;;;18.00;99297.00;;;;5050805;28;20159;-65
2023/05/17 12:29:14;;;;;;;8.43;3.50;;;;;18.30;99295.00;;;;5050758;28;20049;-66